createdAt,value
2023-02-19T00:01:21.497Z,25.50
2023-02-19T00:02:53.225Z,25.40
2023-02-19T00:04:24.957Z,23.20
2023-02-19T00:05:56.703Z,25.30
2023-02-19T00:07:28.370Z,26.30
2023-02-19T00:09:00.829Z,21.80
2023-02-19T00:10:32.598Z,25.60
2023-02-19T00:12:04.532Z,24.20
2023-02-19T00:13:42.102Z,26.40
2023-02-19T00:15:13.850Z,20.70
2023-02-19T00:16:46.507Z,26.50
2023-02-19T00:18:18.212Z,23.80
2023-02-19T00:19:49.885Z,24.60
2023-02-19T00:21:22.411Z,23.10
2023-02-19T00:22:54.115Z,24.20
2023-02-19T00:24:25.790Z,25.80
2023-02-19T00:26:17.101Z,24.40
2023-02-19T00:27:50.065Z,25.00
2023-02-19T00:29:22.628Z,25.00
2023-02-19T00:30:54.474Z,24.40
2023-02-19T00:32:26.286Z,24.00
2023-02-19T00:34:04.047Z,23.50
2023-02-19T00:35:35.923Z,22.10
2023-02-19T00:37:07.662Z,25.60
2023-02-19T00:38:42.021Z,21.30
2023-02-19T00:40:14.117Z,21.80
2023-02-19T00:41:46.541Z,20.30
2023-02-19T00:43:18.515Z,22.80
2023-02-19T00:44:50.327Z,21.80
2023-02-19T00:46:36.340Z,19.50
2023-02-19T00:48:08.091Z,18.70
2023-02-19T00:49:39.836Z,19.70
2023-02-19T00:51:11.892Z,20.30
2023-02-19T00:52:43.764Z,21.90
2023-02-19T00:54:17.258Z,21.60
2023-02-19T00:55:48.946Z,19.70
2023-02-19T00:57:20.646Z,18.50
2023-02-19T00:58:52.860Z,16.00
2023-02-19T01:00:24.611Z,21.80
2023-02-19T01:01:56.474Z,17.10
2023-02-19T01:03:28.617Z,16.50
2023-02-19T01:05:00.401Z,18.70
2023-02-19T01:06:32.717Z,19.70
2023-02-19T01:08:04.645Z,19.80
2023-02-19T01:09:36.394Z,19.60
2023-02-19T01:11:10.406Z,19.60
2023-02-19T01:12:42.572Z,20.50
2023-02-19T01:14:14.450Z,23.90
2023-02-19T01:15:46.438Z,21.70
2023-02-19T01:17:18.499Z,22.20
2023-02-19T01:18:50.701Z,25.80
2023-02-19T01:20:23.245Z,17.90
2023-02-19T01:21:54.954Z,23.50
2023-02-19T01:23:26.777Z,22.90
2023-02-19T01:24:58.641Z,26.70
2023-02-19T01:26:32.514Z,24.00
2023-02-19T01:28:04.509Z,23.10
2023-02-19T01:29:36.504Z,27.30
2023-02-19T01:31:14.080Z,25.30
2023-02-19T01:32:46.022Z,29.10
2023-02-19T01:34:17.754Z,26.30
2023-02-19T01:35:49.555Z,29.00
2023-02-19T01:37:21.244Z,28.00
2023-02-19T01:38:53.314Z,25.80
2023-02-19T01:40:26.321Z,21.10
2023-02-19T01:41:58.574Z,27.20
2023-02-19T01:43:34.625Z,28.10
2023-02-19T01:45:39.047Z,32.70
2023-02-19T01:47:12.081Z,34.10
2023-02-19T01:48:43.856Z,38.00
2023-02-19T01:50:16.607Z,36.10
2023-02-19T01:51:54.301Z,33.30
2023-02-19T01:53:32.437Z,39.30
2023-02-19T01:55:12.684Z,35.90
2023-02-19T01:56:47.935Z,36.60
2023-02-19T01:58:20.057Z,37.20
2023-02-19T02:00:00.192Z,30.90
2023-02-19T02:01:32.547Z,36.40
2023-02-19T02:03:04.920Z,34.00
2023-02-19T02:04:36.620Z,40.80
2023-02-19T02:06:21.347Z,39.70
2023-02-19T02:08:11.789Z,39.00
2023-02-19T02:10:15.744Z,37.10
2023-02-19T02:11:51.560Z,33.50
2023-02-19T02:13:23.875Z,30.30
2023-02-19T02:14:55.688Z,27.60
2023-02-19T02:17:11.967Z,27.90
2023-02-19T02:18:58.440Z,26.70
2023-02-19T02:21:07.657Z,23.50
2023-02-19T02:22:54.875Z,23.60
2023-02-19T02:25:10.466Z,23.10
2023-02-19T02:27:13.698Z,22.50
2023-02-19T02:29:15.903Z,27.20
2023-02-19T02:30:57.952Z,24.10
2023-02-19T02:32:53.535Z,25.10
2023-02-19T02:34:36.786Z,23.10
2023-02-19T02:36:19.966Z,27.10
2023-02-19T02:37:56.969Z,26.00
2023-02-19T02:39:32.473Z,23.60
2023-02-19T02:41:05.967Z,26.20
2023-02-19T02:42:40.535Z,26.70
2023-02-19T02:44:15.073Z,28.60
2023-02-19T02:45:46.922Z,26.90
2023-02-19T02:47:57.298Z,26.70
2023-02-19T02:49:29.786Z,29.30
2023-02-19T02:51:18.148Z,23.90
2023-02-19T02:53:21.816Z,26.60
2023-02-19T02:55:03.113Z,31.80
2023-02-19T02:56:36.341Z,31.80
2023-02-19T02:58:09.602Z,27.70
2023-02-19T02:59:44.011Z,30.40
2023-02-19T03:01:51.763Z,29.00
2023-02-19T03:03:27.448Z,27.60
2023-02-19T03:05:40.156Z,32.20
2023-02-19T03:07:12.626Z,26.40
2023-02-19T03:09:00.476Z,28.70
2023-02-19T03:10:53.286Z,27.60
2023-02-19T03:12:47.728Z,30.10
2023-02-19T03:14:54.329Z,27.60
2023-02-19T03:16:51.517Z,30.80
2023-02-19T03:18:47.124Z,26.90
2023-02-19T03:20:23.529Z,27.60
2023-02-19T03:22:16.184Z,30.20
2023-02-19T03:24:08.214Z,27.80
2023-02-19T03:25:59.733Z,29.80
2023-02-19T03:27:43.805Z,30.10
2023-02-19T03:29:25.809Z,32.70
2023-02-19T03:31:04.632Z,34.20
2023-02-19T03:32:42.143Z,32.30
2023-02-19T03:34:22.630Z,25.20
2023-02-19T03:36:03.472Z,29.50
2023-02-19T03:38:18.479Z,27.10
2023-02-19T03:39:52.882Z,28.70
2023-02-19T03:41:43.143Z,33.60
2023-02-19T03:43:24.536Z,25.10
2023-02-19T03:45:15.487Z,30.30
2023-02-19T03:47:03.371Z,32.80
2023-02-19T03:49:02.262Z,24.40
2023-02-19T03:50:50.130Z,31.20
2023-02-19T03:52:26.204Z,26.80
2023-02-19T03:54:37.913Z,25.60
2023-02-19T03:56:19.945Z,26.20
2023-02-19T03:58:22.396Z,27.00
2023-02-19T04:00:33.629Z,22.50
2023-02-19T04:02:25.961Z,23.50
2023-02-19T04:04:07.285Z,22.70
2023-02-19T04:05:48.385Z,26.80
2023-02-19T04:07:22.621Z,22.80
2023-02-19T04:09:00.166Z,24.30
2023-02-19T04:10:32.524Z,21.90
2023-02-19T04:12:06.905Z,28.40
2023-02-19T04:13:48.413Z,28.10
2023-02-19T04:15:27.465Z,24.00
2023-02-19T04:17:08.729Z,23.60
2023-02-19T04:18:45.220Z,26.80
2023-02-19T04:20:20.826Z,27.90
2023-02-19T04:21:56.630Z,23.00
2023-02-19T04:23:35.693Z,21.60
2023-02-19T04:25:09.059Z,22.60
2023-02-19T04:26:42.576Z,22.40
2023-02-19T04:28:16.554Z,22.10
2023-02-19T04:29:48.430Z,22.10
2023-02-19T04:31:20.368Z,21.30
2023-02-19T04:32:52.123Z,21.90
2023-02-19T04:34:23.821Z,27.60
2023-02-19T04:35:55.513Z,26.40
2023-02-19T04:37:27.216Z,22.80
2023-02-19T04:38:59.850Z,21.50
2023-02-19T04:40:31.667Z,24.90
2023-02-19T04:42:04.100Z,23.20
2023-02-19T04:43:35.800Z,24.70
2023-02-19T04:45:08.178Z,19.60
2023-02-19T04:46:43.122Z,25.20
2023-02-19T04:48:15.024Z,20.60
2023-02-19T04:49:46.819Z,23.10
2023-02-19T04:51:19.250Z,28.10
2023-02-19T04:52:51.005Z,28.70
2023-02-19T04:54:25.770Z,26.00
2023-02-19T04:55:57.464Z,23.30
2023-02-19T04:57:29.155Z,25.70
2023-02-19T04:59:00.994Z,25.40
2023-02-19T05:00:34.063Z,29.90
2023-02-19T05:02:05.866Z,26.00
2023-02-19T05:03:37.942Z,28.30
2023-02-19T05:05:09.646Z,28.80
2023-02-19T05:06:41.297Z,24.30
2023-02-19T05:08:13.125Z,24.10
2023-02-19T05:09:44.811Z,28.40
2023-02-19T05:11:16.516Z,26.20
2023-02-19T05:12:48.268Z,21.90
2023-02-19T05:14:20.055Z,22.30
2023-02-19T05:16:15.882Z,25.00
2023-02-19T05:17:47.588Z,25.90
2023-02-19T05:19:19.338Z,25.90
2023-02-19T05:20:52.748Z,19.80
2023-02-19T05:22:24.445Z,26.00
2023-02-19T05:23:56.136Z,26.20
2023-02-19T05:25:27.810Z,23.10
2023-02-19T05:26:59.597Z,23.40
2023-02-19T05:28:31.328Z,22.20
2023-02-19T05:30:03.318Z,20.20
2023-02-19T05:31:35.208Z,27.40
2023-02-19T05:33:06.990Z,24.60
2023-02-19T05:34:38.751Z,23.70
2023-02-19T05:36:13.745Z,19.30
2023-02-19T05:37:45.446Z,19.20
2023-02-19T05:39:17.240Z,21.40
2023-02-19T05:40:49.331Z,29.80
2023-02-19T05:42:21.128Z,24.80
2023-02-19T05:43:54.131Z,23.00
2023-02-19T05:45:26.290Z,24.30
2023-02-19T05:46:58.324Z,27.20
2023-02-19T05:48:30.081Z,27.00
2023-02-19T05:50:01.777Z,22.20
2023-02-19T05:51:33.511Z,26.00
2023-02-19T05:53:05.870Z,26.70
2023-02-19T05:54:37.530Z,25.10
2023-02-19T05:56:40.962Z,22.60
2023-02-19T05:58:12.671Z,24.10
2023-02-19T05:59:44.361Z,22.90
2023-02-19T06:01:19.650Z,22.40
2023-02-19T06:02:51.321Z,22.10
2023-02-19T06:04:23.504Z,21.50
2023-02-19T06:05:55.306Z,25.50
2023-02-19T06:07:26.957Z,25.40
2023-02-19T06:08:58.666Z,19.80
2023-02-19T06:10:30.407Z,21.10
2023-02-19T06:12:02.096Z,21.80
2023-02-19T06:13:33.909Z,28.60
2023-02-19T06:15:06.916Z,23.00
2023-02-19T06:16:38.651Z,20.40
2023-02-19T06:18:10.392Z,22.20
2023-02-19T06:19:42.281Z,24.40
2023-02-19T06:21:17.411Z,22.80
2023-02-19T06:22:52.159Z,24.40
2023-02-19T06:24:23.881Z,24.20
2023-02-19T06:25:55.672Z,23.40
2023-02-19T06:27:28.103Z,22.70
2023-02-19T06:28:59.836Z,22.50
2023-02-19T06:30:31.671Z,21.60
2023-02-19T06:32:04.938Z,23.30
2023-02-19T06:33:40.430Z,25.90
2023-02-19T06:35:12.178Z,22.90
2023-02-19T06:36:44.543Z,22.40
2023-02-19T06:38:16.392Z,21.10
2023-02-19T06:39:48.254Z,27.30
2023-02-19T06:41:20.078Z,19.80
2023-02-19T06:42:51.743Z,21.50
2023-02-19T06:44:24.687Z,19.70
2023-02-19T06:46:00.131Z,19.60
2023-02-19T06:47:33.494Z,18.90
2023-02-19T06:49:06.016Z,15.90
2023-02-19T06:50:37.865Z,23.40
2023-02-19T06:52:09.614Z,23.90
2023-02-19T06:53:41.976Z,18.40
2023-02-19T06:55:13.851Z,18.30
2023-02-19T06:56:47.075Z,19.00
2023-02-19T06:58:18.954Z,20.90
2023-02-19T06:59:50.610Z,20.90
2023-02-19T07:01:23.899Z,22.60
2023-02-19T07:02:56.692Z,19.80
2023-02-19T07:04:28.942Z,20.50
2023-02-19T07:06:00.939Z,18.40
2023-02-19T07:07:32.711Z,17.80
2023-02-19T07:09:07.129Z,19.00
2023-02-19T07:10:38.993Z,17.90
2023-02-19T07:12:10.812Z,16.60
2023-02-19T07:13:42.506Z,21.00
2023-02-19T07:15:14.215Z,19.50
2023-02-19T07:16:47.474Z,22.50
2023-02-19T07:18:19.304Z,19.40
2023-02-19T07:19:51.126Z,20.20
2023-02-19T07:21:25.136Z,18.60
2023-02-19T07:22:57.644Z,16.40
2023-02-19T07:24:29.436Z,19.80
2023-02-19T07:26:01.307Z,20.70
2023-02-19T07:27:33.137Z,17.30
2023-02-19T07:29:04.892Z,21.80
2023-02-19T07:30:36.830Z,19.60
2023-02-19T07:32:08.978Z,17.50
2023-02-19T07:33:44.482Z,17.40
2023-02-19T07:35:16.224Z,17.70
2023-02-19T07:36:50.073Z,17.70
2023-02-19T07:38:24.323Z,18.90
2023-02-19T07:39:55.962Z,20.80
2023-02-19T07:41:28.236Z,18.50
2023-02-19T07:43:01.504Z,23.30
2023-02-19T07:44:33.461Z,17.20
2023-02-19T07:46:11.708Z,16.80
2023-02-19T07:47:43.641Z,14.40
2023-02-19T07:49:15.478Z,20.40
2023-02-19T07:50:54.551Z,18.60
2023-02-19T07:52:27.045Z,15.80
2023-02-19T07:53:58.754Z,16.40
2023-02-19T07:55:32.663Z,18.20
2023-02-19T07:57:04.342Z,20.10
2023-02-19T07:58:36.076Z,19.30
2023-02-19T08:00:08.316Z,14.00
2023-02-19T08:02:02.679Z,14.30
2023-02-19T08:03:35.293Z,16.80
2023-02-19T08:05:07.508Z,17.00
2023-02-19T08:06:40.239Z,11.00
2023-02-19T08:08:14.684Z,19.60
2023-02-19T08:10:06.369Z,16.40
2023-02-19T08:11:57.031Z,18.10
2023-02-19T08:13:31.116Z,16.40
2023-02-19T08:15:02.867Z,18.60
2023-02-19T08:16:43.064Z,14.50
2023-02-19T08:18:17.584Z,16.30
2023-02-19T08:19:49.218Z,15.60
2023-02-19T08:21:21.131Z,19.70
2023-02-19T08:22:52.818Z,16.40
2023-02-19T08:24:24.563Z,14.30
2023-02-19T08:26:02.133Z,14.50
2023-02-19T08:27:33.845Z,11.90
2023-02-19T08:29:06.548Z,14.30
2023-02-19T08:30:40.862Z,14.70
2023-02-19T08:32:12.618Z,13.70
2023-02-19T08:33:44.347Z,12.30
2023-02-19T08:35:16.229Z,14.70
2023-02-19T08:36:47.877Z,17.30
2023-02-19T08:38:19.601Z,14.90
2023-02-19T08:39:51.339Z,13.70
2023-02-19T08:41:23.079Z,14.30
2023-02-19T08:42:54.862Z,14.30
2023-02-19T08:44:26.545Z,17.10
2023-02-19T08:45:58.266Z,14.40
2023-02-19T08:47:30.141Z,13.70
2023-02-19T08:49:01.820Z,16.20
2023-02-19T08:50:34.580Z,13.80
2023-02-19T08:52:06.278Z,10.80
2023-02-19T08:53:40.373Z,16.70
2023-02-19T08:55:12.055Z,15.10
2023-02-19T08:56:43.951Z,15.20
2023-02-19T08:58:15.779Z,13.50
2023-02-19T08:59:47.454Z,17.60
2023-02-19T09:01:19.418Z,10.50
2023-02-19T09:02:51.254Z,12.40
2023-02-19T09:04:23.003Z,15.90
2023-02-19T09:05:54.875Z,14.20
2023-02-19T09:07:27.083Z,13.40
2023-02-19T09:08:58.837Z,10.90
2023-02-19T09:10:30.534Z,13.30
2023-02-19T09:12:06.102Z,14.10
2023-02-19T09:13:37.872Z,14.80
2023-02-19T09:15:10.124Z,12.80
2023-02-19T09:16:41.911Z,14.90
2023-02-19T09:18:13.632Z,13.60
2023-02-19T09:19:45.511Z,15.80
2023-02-19T09:21:17.161Z,14.10
2023-02-19T09:22:48.958Z,11.80
2023-02-19T09:24:21.011Z,12.30
2023-02-19T09:26:00.651Z,19.40
2023-02-19T09:27:33.281Z,16.60
2023-02-19T09:29:04.972Z,13.60
2023-02-19T09:30:36.849Z,12.50
2023-02-19T09:32:08.678Z,13.90
2023-02-19T09:33:48.205Z,13.30
2023-02-19T09:35:19.933Z,13.30
2023-02-19T09:36:52.455Z,12.10
2023-02-19T09:38:24.195Z,14.20
2023-02-19T09:39:55.957Z,13.00
2023-02-19T09:41:46.395Z,15.80
2023-02-19T09:43:22.215Z,14.10
2023-02-19T09:44:58.860Z,14.60
2023-02-19T09:46:46.270Z,15.00
2023-02-19T09:48:18.066Z,14.60
2023-02-19T09:49:56.750Z,12.50
2023-02-19T09:51:30.516Z,15.20
2023-02-19T09:53:13.770Z,15.40
2023-02-19T09:54:47.278Z,13.20
2023-02-19T09:56:19.168Z,15.70
2023-02-19T09:57:52.449Z,12.10
2023-02-19T09:59:33.623Z,12.70
2023-02-19T10:01:07.847Z,13.40
2023-02-19T10:02:39.720Z,12.40
2023-02-19T10:04:11.691Z,15.40
2023-02-19T10:05:43.588Z,10.00
2023-02-19T10:07:19.977Z,14.20
2023-02-19T10:08:59.975Z,10.00
2023-02-19T10:10:37.274Z,10.30
2023-02-19T10:12:23.179Z,11.80
2023-02-19T10:14:21.572Z,12.70
2023-02-19T10:16:00.706Z,10.60
2023-02-19T10:17:34.696Z,13.40
2023-02-19T10:19:13.604Z,12.20
2023-02-19T10:20:47.542Z,11.40
2023-02-19T10:22:20.697Z,15.00
2023-02-19T10:23:58.969Z,12.50
2023-02-19T10:25:33.878Z,12.00
2023-02-19T10:27:12.921Z,12.00
2023-02-19T10:28:44.627Z,11.30
2023-02-19T10:30:29.334Z,12.80
2023-02-19T10:32:14.659Z,13.90
2023-02-19T10:33:56.707Z,11.00
2023-02-19T10:35:29.963Z,11.70
2023-02-19T10:37:01.936Z,8.10
2023-02-19T10:38:47.500Z,9.70
2023-02-19T10:40:23.375Z,9.70
2023-02-19T10:41:55.204Z,7.90
2023-02-19T10:43:34.029Z,11.20
2023-02-19T10:45:13.552Z,10.90
2023-02-19T10:46:52.100Z,10.50
2023-02-19T10:48:33.374Z,10.20
2023-02-19T10:50:05.518Z,8.00
2023-02-19T10:51:41.827Z,10.90
2023-02-19T10:53:25.935Z,11.40
2023-02-19T10:55:24.395Z,10.90
2023-02-19T10:57:15.380Z,12.40
2023-02-19T10:58:47.696Z,6.60
2023-02-19T11:00:28.910Z,9.10
2023-02-19T11:02:20.476Z,8.10
2023-02-19T11:04:17.664Z,9.30
2023-02-19T11:06:06.607Z,7.40
2023-02-19T11:07:45.695Z,8.70
2023-02-19T11:09:39.022Z,8.40
2023-02-19T11:11:20.982Z,8.90
2023-02-19T11:12:57.670Z,7.10
2023-02-19T11:14:32.248Z,9.50
2023-02-19T11:16:05.333Z,8.10
2023-02-19T11:17:37.241Z,6.50
2023-02-19T11:19:26.387Z,9.40
2023-02-19T11:21:02.406Z,7.80
2023-02-19T11:22:42.343Z,8.00
2023-02-19T11:24:38.013Z,8.20
2023-02-19T11:26:23.571Z,6.60
2023-02-19T11:28:31.292Z,6.90
2023-02-19T11:30:30.458Z,9.20
2023-02-19T11:32:20.670Z,9.30
2023-02-19T11:34:01.616Z,7.60
2023-02-19T11:35:33.312Z,7.90
2023-02-19T11:37:15.063Z,9.60
2023-02-19T11:38:46.933Z,9.50
2023-02-19T11:40:18.825Z,9.60
2023-02-19T11:42:14.949Z,10.60
2023-02-19T11:43:57.499Z,8.80
2023-02-19T11:45:51.355Z,7.30
2023-02-19T11:47:44.099Z,7.50
2023-02-19T11:49:37.076Z,7.90
2023-02-19T11:51:21.411Z,7.20
2023-02-19T11:53:05.233Z,6.40
2023-02-19T11:55:07.411Z,5.80
2023-02-19T11:56:43.123Z,8.70
2023-02-19T11:58:39.316Z,7.80
2023-02-19T12:00:13.802Z,7.40
2023-02-19T12:02:06.004Z,11.30
2023-02-19T12:04:09.255Z,5.40
2023-02-19T12:06:10.599Z,7.70
2023-02-19T12:08:22.613Z,7.10
2023-02-19T12:10:31.598Z,7.70
2023-02-19T12:12:26.291Z,6.40
2023-02-19T12:14:09.994Z,6.40
2023-02-19T12:16:00.858Z,5.40
2023-02-19T12:18:20.629Z,4.90
2023-02-19T12:20:01.506Z,4.80
2023-02-19T12:21:35.986Z,5.80
2023-02-19T12:23:38.572Z,6.90
2023-02-19T12:25:29.744Z,4.50
2023-02-19T12:28:04.686Z,6.00
2023-02-19T12:30:14.074Z,5.60
2023-02-19T12:32:13.220Z,5.80
2023-02-19T12:34:06.861Z,6.70
2023-02-19T12:36:22.049Z,5.30
2023-02-19T12:38:08.792Z,4.80
2023-02-19T12:40:32.973Z,5.80
2023-02-19T12:42:42.859Z,5.70
2023-02-19T12:44:27.999Z,3.90
2023-02-19T12:46:21.556Z,4.10
2023-02-19T12:48:24.019Z,4.80
2023-02-19T12:50:24.829Z,5.00
2023-02-19T12:52:07.066Z,5.40
2023-02-19T12:54:04.728Z,6.30
2023-02-19T12:55:44.758Z,5.70
2023-02-19T12:57:24.718Z,6.30
2023-02-19T12:59:05.132Z,6.30
2023-02-19T13:01:05.496Z,7.10
2023-02-19T13:03:08.291Z,6.10
2023-02-19T13:04:49.377Z,7.20
2023-02-19T13:06:41.334Z,7.50
2023-02-19T13:08:42.053Z,6.60
2023-02-19T13:10:41.196Z,7.30
2023-02-19T13:12:26.595Z,8.20
2023-02-19T13:14:13.297Z,8.00
2023-02-19T13:15:55.431Z,8.20
2023-02-19T13:17:51.206Z,9.10
2023-02-19T13:19:23.118Z,8.70
2023-02-19T13:20:56.387Z,9.70
2023-02-19T13:23:20.773Z,8.30
2023-02-19T13:24:54.589Z,9.70
2023-02-19T13:27:17.420Z,9.70
2023-02-19T13:29:22.460Z,11.20
2023-02-19T13:31:44.538Z,8.10
2023-02-19T13:33:32.776Z,10.20
2023-02-19T13:35:42.432Z,7.50
2023-02-19T13:37:16.289Z,8.80
2023-02-19T13:38:50.552Z,11.10
2023-02-19T13:40:25.169Z,9.20
2023-02-19T13:42:01.947Z,8.60
2023-02-19T13:43:38.878Z,9.70
2023-02-19T13:45:28.230Z,11.50
2023-02-19T13:47:00.732Z,9.10
2023-02-19T13:48:37.148Z,10.80
2023-02-19T13:50:25.731Z,7.90
2023-02-19T13:52:00.208Z,10.60
2023-02-19T13:54:00.992Z,8.50
2023-02-19T13:55:49.890Z,10.10
2023-02-19T13:57:24.610Z,10.30
2023-02-19T13:59:26.743Z,7.70
2023-02-19T14:01:14.099Z,7.60
2023-02-19T14:02:46.023Z,9.90
2023-02-19T14:04:47.369Z,8.60
2023-02-19T14:06:19.387Z,8.40
2023-02-19T14:07:55.403Z,9.10
2023-02-19T14:09:38.921Z,7.20
2023-02-19T14:11:14.265Z,7.40
2023-02-19T14:12:46.083Z,9.00
2023-02-19T14:14:35.230Z,9.50
2023-02-19T14:16:53.154Z,10.20
2023-02-19T14:19:00.463Z,8.30
2023-02-19T14:20:45.330Z,8.40
2023-02-19T14:22:50.050Z,8.50
2023-02-19T14:24:23.504Z,7.30
2023-02-19T14:26:01.195Z,7.00
2023-02-19T14:27:33.129Z,5.90
2023-02-19T14:29:10.582Z,10.00
2023-02-19T14:30:57.660Z,8.20
2023-02-19T14:32:29.407Z,5.60
2023-02-19T14:34:06.984Z,7.00
2023-02-19T14:35:44.965Z,5.30
2023-02-19T14:37:21.028Z,6.90
2023-02-19T14:39:16.120Z,5.90
2023-02-19T14:40:49.727Z,7.60
2023-02-19T14:42:32.405Z,7.50
2023-02-19T14:44:14.822Z,6.90
2023-02-19T14:46:00.258Z,8.10
2023-02-19T14:47:35.041Z,6.00
2023-02-19T14:49:44.441Z,5.80
2023-02-19T14:51:33.508Z,5.90
2023-02-19T14:53:07.850Z,7.40
2023-02-19T14:54:48.055Z,8.10
2023-02-19T14:56:26.003Z,6.90
2023-02-19T14:58:00.906Z,8.00
2023-02-19T14:59:32.607Z,7.00
2023-02-19T15:01:05.469Z,8.60
2023-02-19T15:02:43.037Z,6.90
2023-02-19T15:04:29.016Z,8.40
2023-02-19T15:06:15.589Z,8.70
2023-02-19T15:07:48.003Z,9.80
2023-02-19T15:09:21.855Z,11.90
2023-02-19T15:10:53.823Z,8.50
2023-02-19T15:12:32.659Z,9.30
2023-02-19T15:14:08.477Z,8.00
2023-02-19T15:15:46.283Z,10.90
2023-02-19T15:17:29.880Z,8.70
2023-02-19T15:19:07.575Z,8.70
2023-02-19T15:20:41.714Z,8.10
2023-02-19T15:22:21.788Z,7.80
2023-02-19T15:23:57.141Z,8.10
2023-02-19T15:25:38.344Z,7.30
2023-02-19T15:27:19.964Z,10.30
2023-02-19T15:29:00.880Z,8.80
2023-02-19T15:30:32.617Z,11.60
2023-02-19T15:32:18.811Z,11.00
2023-02-19T15:33:52.586Z,8.00
2023-02-19T15:35:27.618Z,9.20
2023-02-19T15:37:07.834Z,7.20
2023-02-19T15:38:39.794Z,8.50
2023-02-19T15:40:14.855Z,9.20
2023-02-19T15:41:53.562Z,9.70
2023-02-19T15:43:30.360Z,8.90
2023-02-19T15:45:21.161Z,10.30
2023-02-19T15:46:53.920Z,10.60
2023-02-19T15:48:44.470Z,11.40
2023-02-19T15:50:19.928Z,9.10
2023-02-19T15:52:07.550Z,8.70
2023-02-19T15:53:49.765Z,10.90
2023-02-19T15:55:45.267Z,8.10
2023-02-19T15:57:24.781Z,10.60
2023-02-19T15:59:19.009Z,11.00
2023-02-19T16:00:55.508Z,10.10
2023-02-19T16:02:27.812Z,11.40
2023-02-19T16:04:00.472Z,9.90
2023-02-19T16:05:39.271Z,11.20
2023-02-19T16:07:31.993Z,10.70
2023-02-19T16:09:05.986Z,10.70
2023-02-19T16:10:38.790Z,13.00
2023-02-19T16:12:25.066Z,8.80
2023-02-19T16:14:16.021Z,9.80
2023-02-19T16:16:16.296Z,10.50
2023-02-19T16:17:48.245Z,10.10
2023-02-19T16:19:23.958Z,7.80
2023-02-19T16:20:56.305Z,10.20
2023-02-19T16:22:41.260Z,11.60
2023-02-19T16:24:35.253Z,10.20
2023-02-19T16:26:07.032Z,9.40
2023-02-19T16:27:42.271Z,9.00
2023-02-19T16:29:21.268Z,8.00
2023-02-19T16:31:04.292Z,9.20
2023-02-19T16:32:36.216Z,8.30
2023-02-19T16:34:47.151Z,10.60
2023-02-19T16:36:41.949Z,7.70
2023-02-19T16:38:17.784Z,8.30
2023-02-19T16:40:16.794Z,8.30
2023-02-19T16:41:48.529Z,9.20
2023-02-19T16:43:42.591Z,7.10
2023-02-19T16:45:14.409Z,9.90
2023-02-19T16:46:50.073Z,8.00
2023-02-19T16:48:23.596Z,7.40
2023-02-19T16:49:58.928Z,6.00
2023-02-19T16:51:30.722Z,7.10
2023-02-19T16:53:04.280Z,6.90
2023-02-19T16:54:36.850Z,5.80
2023-02-19T16:56:18.557Z,6.30
2023-02-19T16:57:50.898Z,5.40
2023-02-19T16:59:22.627Z,6.80
2023-02-19T17:00:54.435Z,3.90
2023-02-19T17:02:26.258Z,5.30
2023-02-19T17:04:04.480Z,4.50
2023-02-19T17:05:38.348Z,5.80
2023-02-19T17:07:15.466Z,4.40
2023-02-19T17:08:47.219Z,5.80
2023-02-19T17:10:28.538Z,5.00
2023-02-19T17:12:00.252Z,5.30
2023-02-19T17:13:32.643Z,5.50
2023-02-19T17:15:04.565Z,5.50
2023-02-19T17:16:42.187Z,6.00
2023-02-19T17:18:14.016Z,5.60
2023-02-19T17:19:45.681Z,6.70
2023-02-19T17:21:28.457Z,6.50
2023-02-19T17:23:00.211Z,7.80
2023-02-19T17:24:31.947Z,9.70
2023-02-19T17:26:03.808Z,9.30
2023-02-19T17:27:36.023Z,9.10
2023-02-19T17:29:14.828Z,9.10
2023-02-19T17:30:46.531Z,9.60
2023-02-19T17:32:18.451Z,9.10
2023-02-19T17:33:51.101Z,8.30
2023-02-19T17:35:23.165Z,10.10
2023-02-19T17:36:55.209Z,8.90
2023-02-19T17:38:26.932Z,7.90
2023-02-19T17:39:58.595Z,10.60
2023-02-19T17:41:30.569Z,9.50
2023-02-19T17:43:03.284Z,9.50
2023-02-19T17:44:35.055Z,9.10
2023-02-19T17:46:06.938Z,8.80
2023-02-19T17:47:38.627Z,10.30
2023-02-19T17:49:12.597Z,9.70
2023-02-19T17:50:44.306Z,11.30
2023-02-19T17:52:17.756Z,10.00
2023-02-19T17:53:49.841Z,10.40
2023-02-19T17:55:21.737Z,11.00
2023-02-19T17:56:53.446Z,9.00
2023-02-19T17:58:25.148Z,10.50
2023-02-19T17:59:56.864Z,8.50
2023-02-19T18:01:28.568Z,8.20
2023-02-19T18:03:00.227Z,9.90
2023-02-19T18:04:31.916Z,9.30
2023-02-19T18:06:04.926Z,9.60
2023-02-19T18:07:36.670Z,9.00
2023-02-19T18:09:08.408Z,9.30
2023-02-19T18:10:40.238Z,9.90
2023-02-19T18:12:12.009Z,11.50
2023-02-19T18:13:43.893Z,11.20
2023-02-19T18:15:26.805Z,11.00
2023-02-19T18:16:58.914Z,10.60
2023-02-19T18:18:30.656Z,9.20
2023-02-19T18:20:04.630Z,11.70
2023-02-19T18:21:36.341Z,11.70
2023-02-19T18:23:08.058Z,12.40
2023-02-19T18:24:50.023Z,12.30
2023-02-19T18:26:21.742Z,13.50
2023-02-19T18:27:53.779Z,11.30
2023-02-19T18:29:27.116Z,11.50
2023-02-19T18:30:59.057Z,7.80
2023-02-19T18:32:30.906Z,6.70
2023-02-19T18:34:03.322Z,6.60
2023-02-19T18:35:35.011Z,6.80
2023-02-19T18:37:06.701Z,7.00
2023-02-19T18:38:39.341Z,7.00
2023-02-19T18:40:12.430Z,7.50
2023-02-19T18:41:49.043Z,6.80
2023-02-19T18:43:20.834Z,7.60
2023-02-19T18:44:53.729Z,6.60
2023-02-19T18:46:25.443Z,9.10
2023-02-19T18:47:57.383Z,6.80
2023-02-19T18:49:29.644Z,10.90
2023-02-19T18:51:01.397Z,7.90
2023-02-19T18:52:33.097Z,9.40
2023-02-19T18:54:05.025Z,9.70
2023-02-19T18:55:36.685Z,9.40
2023-02-19T18:57:08.719Z,10.70
2023-02-19T18:58:40.469Z,11.20
2023-02-19T19:00:19.262Z,11.90
2023-02-19T19:01:51.826Z,9.60
2023-02-19T19:03:23.536Z,10.30
2023-02-19T19:04:56.056Z,11.10
2023-02-19T19:06:28.561Z,11.70
2023-02-19T19:08:01.839Z,11.70
2023-02-19T19:09:34.425Z,11.00
2023-02-19T19:11:06.178Z,9.70
2023-02-19T19:12:37.975Z,9.40
2023-02-19T19:14:10.349Z,9.70
2023-02-19T19:15:42.157Z,10.40
2023-02-19T19:17:13.933Z,7.40
2023-02-19T19:18:47.424Z,10.20
2023-02-19T19:20:22.319Z,9.10
2023-02-19T19:21:55.370Z,8.60
2023-02-19T19:23:27.152Z,8.10
2023-02-19T19:24:59.030Z,7.90
2023-02-19T19:26:30.786Z,8.80
2023-02-19T19:28:02.567Z,8.50
2023-02-19T19:29:34.245Z,7.80
2023-02-19T19:31:06.061Z,8.50
2023-02-19T19:32:38.936Z,7.70
2023-02-19T19:34:11.945Z,7.80
2023-02-19T19:35:43.618Z,9.20
2023-02-19T19:37:15.347Z,9.60
2023-02-19T19:38:48.814Z,7.70
2023-02-19T19:40:20.830Z,9.20
2023-02-19T19:41:56.594Z,7.50
2023-02-19T19:43:31.946Z,8.90
2023-02-19T19:45:05.297Z,8.90
2023-02-19T19:46:44.527Z,9.20
2023-02-19T19:48:16.237Z,10.30
2023-02-19T19:49:47.925Z,8.50
2023-02-19T19:51:19.672Z,9.20
2023-02-19T19:52:51.414Z,9.50
2023-02-19T19:54:23.154Z,11.50
2023-02-19T19:55:56.318Z,9.30
2023-02-19T19:57:27.998Z,8.50
2023-02-19T19:58:59.729Z,11.40
2023-02-19T20:00:31.469Z,8.50
2023-02-19T20:02:03.464Z,11.50
2023-02-19T20:03:35.222Z,8.60
2023-02-19T20:05:07.127Z,9.70
2023-02-19T20:06:39.141Z,10.80
2023-02-19T20:08:10.899Z,12.10
2023-02-19T20:09:47.738Z,12.60
2023-02-19T20:11:19.535Z,9.50
2023-02-19T20:12:51.231Z,9.40
2023-02-19T20:14:25.395Z,10.60
2023-02-19T20:15:57.722Z,11.00
2023-02-19T20:17:29.526Z,10.50
2023-02-19T20:19:01.411Z,10.60
2023-02-19T20:20:33.231Z,10.70
2023-02-19T20:22:04.969Z,11.90
2023-02-19T20:23:39.617Z,13.20
2023-02-19T20:25:11.482Z,14.10
2023-02-19T20:26:44.214Z,12.60
2023-02-19T20:28:16.119Z,10.70
2023-02-19T20:29:48.695Z,11.30
2023-02-19T20:31:20.681Z,9.70
2023-02-19T20:32:53.584Z,11.20
2023-02-19T20:34:26.648Z,10.90
2023-02-19T20:35:58.377Z,11.20
2023-02-19T20:37:30.069Z,11.10
2023-02-19T20:39:01.838Z,10.40
2023-02-19T20:40:33.788Z,10.70
2023-02-19T20:42:06.626Z,11.90
2023-02-19T20:43:38.447Z,11.20
2023-02-19T20:45:10.296Z,11.50
2023-02-19T20:46:49.358Z,13.00
2023-02-19T20:48:21.220Z,10.50
2023-02-19T20:49:52.905Z,8.60
2023-02-19T20:51:24.851Z,12.50
2023-02-19T20:52:56.580Z,10.70
2023-02-19T20:54:33.831Z,11.30
2023-02-19T20:56:06.209Z,12.50
2023-02-19T20:57:37.946Z,12.10
2023-02-19T20:59:09.653Z,11.10
2023-02-19T21:00:41.399Z,12.30
2023-02-19T21:02:24.626Z,12.20
2023-02-19T21:03:56.458Z,11.10
2023-02-19T21:05:28.116Z,10.90
2023-02-19T21:07:00.017Z,12.00
2023-02-19T21:08:31.762Z,12.70
2023-02-19T21:10:03.790Z,12.80
2023-02-19T21:11:36.021Z,11.30
2023-02-19T21:13:07.726Z,12.90
2023-02-19T21:14:39.879Z,14.00
2023-02-19T21:16:12.005Z,12.10
2023-02-19T21:17:47.236Z,11.80